sensor_id;sensor_type;location;lat;lon;timestamp;temperature;humidity
65582;DHT22;52231;40.090;18.348;2023-06-10T00:00:09;20.40;81.50
65582;DHT22;52231;40.090;18.348;2023-06-10T00:02:40;20.30;81.60
65582;DHT22;52231;40.090;18.348;2023-06-10T00:05:09;20.30;81.90
65582;DHT22;52231;40.090;18.348;2023-06-10T00:07:38;20.30;82.20
65582;DHT22;52231;40.090;18.348;2023-06-10T00:10:06;20.30;82.30
65582;DHT22;52231;40.090;18.348;2023-06-10T00:12:35;20.30;82.60
65582;DHT22;52231;40.090;18.348;2023-06-10T00:15:06;20.40;82.90
65582;DHT22;52231;40.090;18.348;2023-06-10T00:17:34;20.40;82.60
65582;DHT22;52231;40.090;18.348;2023-06-10T00:20:08;20.40;82.30
65582;DHT22;52231;40.090;18.348;2023-06-10T00:22:38;20.40;82.30
65582;DHT22;52231;40.090;18.348;2023-06-10T00:25:07;20.40;82.30
65582;DHT22;52231;40.090;18.348;2023-06-10T00:27:37;20.40;82.20
65582;DHT22;52231;40.090;18.348;2023-06-10T00:30:05;20.40;82.20
65582;DHT22;52231;40.090;18.348;2023-06-10T00:32:35;20.40;81.80
65582;DHT22;52231;40.090;18.348;2023-06-10T00:35:05;20.50;81.40
65582;DHT22;52231;40.090;18.348;2023-06-10T00:37:34;20.40;81.20
65582;DHT22;52231;40.090;18.348;2023-06-10T00:40:06;20.40;81.40
65582;DHT22;52231;40.090;18.348;2023-06-10T00:42:37;20.40;81.40
65582;DHT22;52231;40.090;18.348;2023-06-10T00:45:05;20.30;81.10
65582;DHT22;52231;40.090;18.348;2023-06-10T00:47:36;20.30;80.90
65582;DHT22;52231;40.090;18.348;2023-06-10T00:50:05;20.30;81.00
65582;DHT22;52231;40.090;18.348;2023-06-10T00:52:35;20.20;81.30
65582;DHT22;52231;40.090;18.348;2023-06-10T00:55:04;20.20;81.80
65582;DHT22;52231;40.090;18.348;2023-06-10T00:57:32;20.20;82.00
65582;DHT22;52231;40.090;18.348;2023-06-10T01:00:00;20.20;82.40
65582;DHT22;52231;40.090;18.348;2023-06-10T01:02:28;20.20;82.10
65582;DHT22;52231;40.090;18.348;2023-06-10T01:04:59;20.10;81.80
65582;DHT22;52231;40.090;18.348;2023-06-10T01:10:41;19.80;81.60
65582;DHT22;52231;40.090;18.348;2023-06-10T01:13:11;19.80;81.90
65582;DHT22;52231;40.090;18.348;2023-06-10T01:15:41;19.70;81.90
65582;DHT22;52231;40.090;18.348;2023-06-10T01:18:12;19.60;81.80
65582;DHT22;52231;40.090;18.348;2023-06-10T01:20:43;19.50;82.20
65582;DHT22;52231;40.090;18.348;2023-06-10T01:23:12;19.50;82.60
65582;DHT22;52231;40.090;18.348;2023-06-10T01:28:54;19.50;83.10
65582;DHT22;52231;40.090;18.348;2023-06-10T01:31:41;19.50;83.10
65582;DHT22;52231;40.090;18.348;2023-06-10T01:34:12;19.50;82.80
65582;DHT22;52231;40.090;18.348;2023-06-10T01:36:41;19.40;82.80
65582;DHT22;52231;40.090;18.348;2023-06-10T01:39:11;19.40;83.00
65582;DHT22;52231;40.090;18.348;2023-06-10T01:41:41;19.40;83.20
65582;DHT22;52231;40.090;18.348;2023-06-10T01:44:10;19.40;83.30
65582;DHT22;52231;40.090;18.348;2023-06-10T01:46:41;19.50;83.50
65582;DHT22;52231;40.090;18.348;2023-06-10T01:49:11;19.50;83.30
65582;DHT22;52231;40.090;18.348;2023-06-10T01:51:40;19.50;83.20
65582;DHT22;52231;40.090;18.348;2023-06-10T01:54:08;19.50;83.20
65582;DHT22;52231;40.090;18.348;2023-06-10T01:56:39;19.50;83.20
65582;DHT22;52231;40.090;18.348;2023-06-10T01:59:09;19.50;83.10
65582;DHT22;52231;40.090;18.348;2023-06-10T02:01:37;19.50;83.20
65582;DHT22;52231;40.090;18.348;2023-06-10T02:04:06;19.50;83.40
65582;DHT22;52231;40.090;18.348;2023-06-10T02:06:34;19.60;83.50
65582;DHT22;52231;40.090;18.348;2023-06-10T02:09:03;19.60;83.70
65582;DHT22;52231;40.090;18.348;2023-06-10T02:11:31;19.60;83.90
65582;DHT22;52231;40.090;18.348;2023-06-10T02:13:59;19.70;84.00
65582;DHT22;52231;40.090;18.348;2023-06-10T02:16:28;19.60;83.90
65582;DHT22;52231;40.090;18.348;2023-06-10T02:18:56;19.60;83.60
65582;DHT22;52231;40.090;18.348;2023-06-10T02:21:24;19.60;83.50
65582;DHT22;52231;40.090;18.348;2023-06-10T02:23:52;19.50;83.40
65582;DHT22;52231;40.090;18.348;2023-06-10T02:26:20;19.60;83.50
65582;DHT22;52231;40.090;18.348;2023-06-10T02:28:48;19.50;83.50
65582;DHT22;52231;40.090;18.348;2023-06-10T02:31:17;19.50;83.70
65582;DHT22;52231;40.090;18.348;2023-06-10T02:33:46;19.50;83.90
65582;DHT22;52231;40.090;18.348;2023-06-10T02:36:14;19.50;83.80
65582;DHT22;52231;40.090;18.348;2023-06-10T02:38:43;19.50;83.40
65582;DHT22;52231;40.090;18.348;2023-06-10T02:41:12;19.50;83.30
65582;DHT22;52231;40.090;18.348;2023-06-10T02:43:41;19.50;83.10
65582;DHT22;52231;40.090;18.348;2023-06-10T02:46:10;19.50;83.00
65582;DHT22;52231;40.090;18.348;2023-06-10T02:48:41;19.50;83.00
65582;DHT22;52231;40.090;18.348;2023-06-10T02:51:13;19.50;83.00
65582;DHT22;52231;40.090;18.348;2023-06-10T02:53:45;19.50;83.00
65582;DHT22;52231;40.090;18.348;2023-06-10T02:56:16;19.50;82.90
65582;DHT22;52231;40.090;18.348;2023-06-10T02:58:45;19.50;82.60
65582;DHT22;52231;40.090;18.348;2023-06-10T03:01:16;19.40;82.60
65582;DHT22;52231;40.090;18.348;2023-06-10T03:03:53;19.30;82.60
65582;DHT22;52231;40.090;18.348;2023-06-10T03:06:21;19.30;82.70
65582;DHT22;52231;40.090;18.348;2023-06-10T03:08:53;19.40;82.80
65582;DHT22;52231;40.090;18.348;2023-06-10T03:11:22;19.30;82.90
65582;DHT22;52231;40.090;18.348;2023-06-10T03:13:52;19.30;82.90
65582;DHT22;52231;40.090;18.348;2023-06-10T03:20:52;19.40;82.80
65582;DHT22;52231;40.090;18.348;2023-06-10T03:23:22;19.40;82.70
65582;DHT22;52231;40.090;18.348;2023-06-10T03:25:51;19.30;82.70
65582;DHT22;52231;40.090;18.348;2023-06-10T03:28:20;19.30;82.60
65582;DHT22;52231;40.090;18.348;2023-06-10T03:30:49;19.30;82.60
65582;DHT22;52231;40.090;18.348;2023-06-10T03:33:17;19.30;82.80
65582;DHT22;52231;40.090;18.348;2023-06-10T03:35:46;19.40;82.80
65582;DHT22;52231;40.090;18.348;2023-06-10T03:38:14;19.40;82.80
65582;DHT22;52231;40.090;18.348;2023-06-10T03:40:43;19.40;82.70
65582;DHT22;52231;40.090;18.348;2023-06-10T03:43:11;19.40;82.60
65582;DHT22;52231;40.090;18.348;2023-06-10T03:45:39;19.40;82.50
65582;DHT22;52231;40.090;18.348;2023-06-10T03:48:10;19.40;82.50
65582;DHT22;52231;40.090;18.348;2023-06-10T03:50:45;19.40;82.50
65582;DHT22;52231;40.090;18.348;2023-06-10T03:53:15;19.50;82.50
65582;DHT22;52231;40.090;18.348;2023-06-10T03:55:44;19.70;82.50
65582;DHT22;52231;40.090;18.348;2023-06-10T03:58:15;19.80;82.30
65582;DHT22;52231;40.090;18.348;2023-06-10T04:00:44;20.00;82.00
65582;DHT22;52231;40.090;18.348;2023-06-10T04:03:13;20.10;81.80
65582;DHT22;52231;40.090;18.348;2023-06-10T04:10:32;20.60;81.00
65582;DHT22;52231;40.090;18.348;2023-06-10T04:13:01;20.80;80.40
65582;DHT22;52231;40.090;18.348;2023-06-10T04:15:35;21.00;80.10
65582;DHT22;52231;40.090;18.348;2023-06-10T04:18:08;21.20;79.00
65582;DHT22;52231;40.090;18.348;2023-06-10T04:20:37;21.30;78.70
65582;DHT22;52231;40.090;18.348;2023-06-10T04:23:05;21.50;78.20
65582;DHT22;52231;40.090;18.348;2023-06-10T04:25:34;21.70;77.80
65582;DHT22;52231;40.090;18.348;2023-06-10T04:28:03;21.80;77.40
65582;DHT22;52231;40.090;18.348;2023-06-10T04:30:32;21.90;77.20
65582;DHT22;52231;40.090;18.348;2023-06-10T04:33:02;22.20;77.00
65582;DHT22;52231;40.090;18.348;2023-06-10T04:35:30;22.40;76.50
65582;DHT22;52231;40.090;18.348;2023-06-10T04:38:01;22.50;76.00
65582;DHT22;52231;40.090;18.348;2023-06-10T04:40:32;22.60;75.60
65582;DHT22;52231;40.090;18.348;2023-06-10T04:43:01;22.60;75.40
65582;DHT22;52231;40.090;18.348;2023-06-10T04:45:29;22.60;75.50
65582;DHT22;52231;40.090;18.348;2023-06-10T04:47:58;22.70;75.60
65582;DHT22;52231;40.090;18.348;2023-06-10T04:50:27;22.70;75.30
65582;DHT22;52231;40.090;18.348;2023-06-10T04:52:55;22.70;75.20
65582;DHT22;52231;40.090;18.348;2023-06-10T04:55:25;22.80;75.20
65582;DHT22;52231;40.090;18.348;2023-06-10T04:57:53;23.00;75.00
65582;DHT22;52231;40.090;18.348;2023-06-10T05:00:22;23.10;74.50
65582;DHT22;52231;40.090;18.348;2023-06-10T05:02:50;23.30;74.10
65582;DHT22;52231;40.090;18.348;2023-06-10T05:05:19;23.50;73.70
65582;DHT22;52231;40.090;18.348;2023-06-10T05:07:47;23.70;73.60
65582;DHT22;52231;40.090;18.348;2023-06-10T05:10:16;24.00;72.90
65582;DHT22;52231;40.090;18.348;2023-06-10T05:12:43;24.50;71.90
65582;DHT22;52231;40.090;18.348;2023-06-10T05:15:12;25.10;70.50
65582;DHT22;52231;40.090;18.348;2023-06-10T05:17:40;25.80;68.70
65582;DHT22;52231;40.090;18.348;2023-06-10T05:20:08;26.70;66.20
65582;DHT22;52231;40.090;18.348;2023-06-10T05:22:37;27.50;62.80
65582;DHT22;52231;40.090;18.348;2023-06-10T05:25:06;28.10;59.70
65582;DHT22;52231;40.090;18.348;2023-06-10T05:27:34;28.70;59.00
65582;DHT22;52231;40.090;18.348;2023-06-10T05:30:04;29.30;56.40
65582;DHT22;52231;40.090;18.348;2023-06-10T05:32:32;30.10;54.70
65582;DHT22;52231;40.090;18.348;2023-06-10T05:35:00;30.40;52.70
65582;DHT22;52231;40.090;18.348;2023-06-10T05:37:29;31.00;51.90
65582;DHT22;52231;40.090;18.348;2023-06-10T05:39:58;31.30;50.80
65582;DHT22;52231;40.090;18.348;2023-06-10T05:42:26;31.60;49.80
65582;DHT22;52231;40.090;18.348;2023-06-10T05:44:54;31.90;49.30
65582;DHT22;52231;40.090;18.348;2023-06-10T05:47:30;32.40;48.30
65582;DHT22;52231;40.090;18.348;2023-06-10T05:49:59;32.90;46.00
65582;DHT22;52231;40.090;18.348;2023-06-10T05:52:27;33.40;44.10
65582;DHT22;52231;40.090;18.348;2023-06-10T05:54:56;34.00;43.60
65582;DHT22;52231;40.090;18.348;2023-06-10T05:57:24;34.30;41.60
65582;DHT22;52231;40.090;18.348;2023-06-10T05:59:52;34.50;41.40
65582;DHT22;52231;40.090;18.348;2023-06-10T06:02:20;34.80;41.10
65582;DHT22;52231;40.090;18.348;2023-06-10T06:05:17;35.00;40.40
65582;DHT22;52231;40.090;18.348;2023-06-10T06:07:48;34.80;40.70
65582;DHT22;52231;40.090;18.348;2023-06-10T06:10:18;34.60;40.40
65582;DHT22;52231;40.090;18.348;2023-06-10T06:12:48;34.60;40.40
65582;DHT22;52231;40.090;18.348;2023-06-10T06:15:33;35.00;39.10
65582;DHT22;52231;40.090;18.348;2023-06-10T06:18:05;35.10;38.60
65582;DHT22;52231;40.090;18.348;2023-06-10T06:20:56;35.00;38.50
65582;DHT22;52231;40.090;18.348;2023-06-10T06:23:24;34.90;39.00
65582;DHT22;52231;40.090;18.348;2023-06-10T06:25:52;34.70;37.60
65582;DHT22;52231;40.090;18.348;2023-06-10T06:28:21;34.20;37.50
65582;DHT22;52231;40.090;18.348;2023-06-10T06:30:53;33.90;37.20
65582;DHT22;52231;40.090;18.348;2023-06-10T06:33:21;33.60;37.80
65582;DHT22;52231;40.090;18.348;2023-06-10T06:35:49;33.30;38.30
65582;DHT22;52231;40.090;18.348;2023-06-10T06:38:18;33.10;38.30
65582;DHT22;52231;40.090;18.348;2023-06-10T06:40:47;32.80;37.90
65582;DHT22;52231;40.090;18.348;2023-06-10T06:43:15;32.80;39.20
65582;DHT22;52231;40.090;18.348;2023-06-10T06:46:03;32.80;40.00
65582;DHT22;52231;40.090;18.348;2023-06-10T06:48:32;32.90;39.30
65582;DHT22;52231;40.090;18.348;2023-06-10T06:51:03;32.90;38.90
65582;DHT22;52231;40.090;18.348;2023-06-10T06:53:31;33.10;39.00
65582;DHT22;52231;40.090;18.348;2023-06-10T06:56:02;33.30;39.20
65582;DHT22;52231;40.090;18.348;2023-06-10T06:58:31;33.30;39.10
65582;DHT22;52231;40.090;18.348;2023-06-10T07:00:59;33.20;39.30
65582;DHT22;52231;40.090;18.348;2023-06-10T07:03:27;33.20;39.30
65582;DHT22;52231;40.090;18.348;2023-06-10T07:05:55;33.40;39.10
65582;DHT22;52231;40.090;18.348;2023-06-10T07:08:26;33.60;39.70
65582;DHT22;52231;40.090;18.348;2023-06-10T07:10:56;33.80;38.60
65582;DHT22;52231;40.090;18.348;2023-06-10T07:13:25;33.90;37.80
65582;DHT22;52231;40.090;18.348;2023-06-10T07:15:53;34.00;37.80
65582;DHT22;52231;40.090;18.348;2023-06-10T07:18:22;34.20;37.70
65582;DHT22;52231;40.090;18.348;2023-06-10T07:20:50;34.30;37.60
65582;DHT22;52231;40.090;18.348;2023-06-10T07:23:18;34.30;37.20
65582;DHT22;52231;40.090;18.348;2023-06-10T07:25:47;34.40;37.20
65582;DHT22;52231;40.090;18.348;2023-06-10T07:28:15;34.40;37.20
65582;DHT22;52231;40.090;18.348;2023-06-10T07:30:44;34.70;37.20
65582;DHT22;52231;40.090;18.348;2023-06-10T07:33:12;34.60;37.10
65582;DHT22;52231;40.090;18.348;2023-06-10T07:35:40;34.60;36.70
65582;DHT22;52231;40.090;18.348;2023-06-10T07:38:10;34.50;37.00
65582;DHT22;52231;40.090;18.348;2023-06-10T07:40:38;34.40;37.10
65582;DHT22;52231;40.090;18.348;2023-06-10T07:43:07;34.30;37.20
65582;DHT22;52231;40.090;18.348;2023-06-10T07:45:35;34.10;37.80
65582;DHT22;52231;40.090;18.348;2023-06-10T07:48:04;34.20;37.00
65582;DHT22;52231;40.090;18.348;2023-06-10T07:50:32;34.10;36.50
65582;DHT22;52231;40.090;18.348;2023-06-10T07:53:01;34.30;37.20
65582;DHT22;52231;40.090;18.348;2023-06-10T07:55:29;34.30;36.70
65582;DHT22;52231;40.090;18.348;2023-06-10T07:57:57;34.50;37.50
65582;DHT22;52231;40.090;18.348;2023-06-10T08:00:25;34.90;36.00
65582;DHT22;52231;40.090;18.348;2023-06-10T08:02:54;35.40;35.90
65582;DHT22;52231;40.090;18.348;2023-06-10T08:05:23;35.80;34.60
65582;DHT22;52231;40.090;18.348;2023-06-10T08:07:52;36.20;34.50
65582;DHT22;52231;40.090;18.348;2023-06-10T08:10:20;36.40;34.10
65582;DHT22;52231;40.090;18.348;2023-06-10T08:12:48;37.00;33.80
65582;DHT22;52231;40.090;18.348;2023-06-10T08:15:16;37.30;33.20
65582;DHT22;52231;40.090;18.348;2023-06-10T08:17:44;37.50;32.60
65582;DHT22;52231;40.090;18.348;2023-06-10T08:20:12;37.40;32.30
65582;DHT22;52231;40.090;18.348;2023-06-10T08:22:40;37.60;32.70
65582;DHT22;52231;40.090;18.348;2023-06-10T08:25:10;37.80;32.60
65582;DHT22;52231;40.090;18.348;2023-06-10T08:27:38;38.30;31.10
65582;DHT22;52231;40.090;18.348;2023-06-10T08:30:07;38.50;31.10
65582;DHT22;52231;40.090;18.348;2023-06-10T08:32:36;38.30;31.40
65582;DHT22;52231;40.090;18.348;2023-06-10T08:35:04;38.00;31.60
65582;DHT22;52231;40.090;18.348;2023-06-10T08:37:33;38.30;31.80
65582;DHT22;52231;40.090;18.348;2023-06-10T08:40:02;38.80;32.50
65582;DHT22;52231;40.090;18.348;2023-06-10T08:42:39;38.30;34.30
65582;DHT22;52231;40.090;18.348;2023-06-10T08:45:15;38.70;34.30
65582;DHT22;52231;40.090;18.348;2023-06-10T08:47:45;38.80;34.10
65582;DHT22;52231;40.090;18.348;2023-06-10T08:50:15;38.70;34.10
65582;DHT22;52231;40.090;18.348;2023-06-10T08:52:48;38.70;33.80
65582;DHT22;52231;40.090;18.348;2023-06-10T08:55:35;39.10;33.40
65582;DHT22;52231;40.090;18.348;2023-06-10T08:58:04;38.90;33.60
65582;DHT22;52231;40.090;18.348;2023-06-10T09:00:34;39.10;32.80
65582;DHT22;52231;40.090;18.348;2023-06-10T09:03:04;39.50;31.70
65582;DHT22;52231;40.090;18.348;2023-06-10T09:05:34;40.10;31.70
65582;DHT22;52231;40.090;18.348;2023-06-10T09:08:06;40.70;30.00
65582;DHT22;52231;40.090;18.348;2023-06-10T09:10:36;40.90;30.30
65582;DHT22;52231;40.090;18.348;2023-06-10T09:13:06;39.70;31.10
65582;DHT22;52231;40.090;18.348;2023-06-10T09:15:34;38.40;33.50
65582;DHT22;52231;40.090;18.348;2023-06-10T09:18:03;37.20;34.70
65582;DHT22;52231;40.090;18.348;2023-06-10T09:20:32;36.10;36.50
65582;DHT22;52231;40.090;18.348;2023-06-10T09:23:01;35.90;37.20
65582;DHT22;52231;40.090;18.348;2023-06-10T09:25:37;35.80;37.80
65582;DHT22;52231;40.090;18.348;2023-06-10T09:28:14;35.40;38.60
65582;DHT22;52231;40.090;18.348;2023-06-10T09:30:43;34.60;40.10
65582;DHT22;52231;40.090;18.348;2023-06-10T09:33:13;33.90;40.90
65582;DHT22;52231;40.090;18.348;2023-06-10T09:35:47;33.40;42.10
65582;DHT22;52231;40.090;18.348;2023-06-10T09:38:20;33.00;42.70
65582;DHT22;52231;40.090;18.348;2023-06-10T09:40:53;32.60;44.20
65582;DHT22;52231;40.090;18.348;2023-06-10T09:43:21;32.20;44.50
65582;DHT22;52231;40.090;18.348;2023-06-10T09:45:51;31.80;45.30
65582;DHT22;52231;40.090;18.348;2023-06-10T09:48:22;31.60;46.20
65582;DHT22;52231;40.090;18.348;2023-06-10T09:50:51;31.30;46.80
65582;DHT22;52231;40.090;18.348;2023-06-10T09:53:20;31.10;49.40
65582;DHT22;52231;40.090;18.348;2023-06-10T09:55:49;30.50;53.40
65582;DHT22;52231;40.090;18.348;2023-06-10T09:58:17;29.70;58.40
65582;DHT22;52231;40.090;18.348;2023-06-10T10:00:52;28.90;59.20
65582;DHT22;52231;40.090;18.348;2023-06-10T10:03:22;28.00;65.10
65582;DHT22;52231;40.090;18.348;2023-06-10T10:05:58;27.30;68.80
65582;DHT22;52231;40.090;18.348;2023-06-10T10:08:28;26.80;71.20
65582;DHT22;52231;40.090;18.348;2023-06-10T10:10:57;26.40;72.40
65582;DHT22;52231;40.090;18.348;2023-06-10T10:13:26;26.20;72.90
65582;DHT22;52231;40.090;18.348;2023-06-10T10:16:01;26.10;73.90
65582;DHT22;52231;40.090;18.348;2023-06-10T10:18:32;26.10;74.80
65582;DHT22;52231;40.090;18.348;2023-06-10T10:21:05;26.00;74.80
65582;DHT22;52231;40.090;18.348;2023-06-10T10:23:39;26.40;73.90
65582;DHT22;52231;40.090;18.348;2023-06-10T10:26:10;27.40;70.30
65582;DHT22;52231;40.090;18.348;2023-06-10T10:28:47;28.90;66.80
65582;DHT22;52231;40.090;18.348;2023-06-10T10:31:19;29.50;63.90
65582;DHT22;52231;40.090;18.348;2023-06-10T10:33:58;29.80;62.00
65582;DHT22;52231;40.090;18.348;2023-06-10T10:36:27;30.30;62.40
65582;DHT22;52231;40.090;18.348;2023-06-10T10:38:56;30.60;57.10
65582;DHT22;52231;40.090;18.348;2023-06-10T10:41:26;30.80;57.70
65582;DHT22;52231;40.090;18.348;2023-06-10T10:43:55;31.00;56.40
65582;DHT22;52231;40.090;18.348;2023-06-10T10:46:24;31.30;58.60
65582;DHT22;52231;40.090;18.348;2023-06-10T10:48:54;30.60;57.40
65582;DHT22;52231;40.090;18.348;2023-06-10T10:51:23;30.00;59.40
65582;DHT22;52231;40.090;18.348;2023-06-10T10:54:12;29.60;61.10
65582;DHT22;52231;40.090;18.348;2023-06-10T10:57:16;29.10;61.90
65582;DHT22;52231;40.090;18.348;2023-06-10T11:05:57;27.90;64.10
65582;DHT22;52231;40.090;18.348;2023-06-10T11:11:00;27.80;66.70
65582;DHT22;52231;40.090;18.348;2023-06-10T11:13:28;27.50;67.30
65582;DHT22;52231;40.090;18.348;2023-06-10T11:15:58;26.90;68.90
65582;DHT22;52231;40.090;18.348;2023-06-10T11:18:29;26.10;69.70
65582;DHT22;52231;40.090;18.348;2023-06-10T11:21:01;25.50;72.30
65582;DHT22;52231;40.090;18.348;2023-06-10T15:05:52;25.80;71.50
65582;DHT22;52231;40.090;18.348;2023-06-10T15:08:21;25.90;71.00
65582;DHT22;52231;40.090;18.348;2023-06-10T15:10:50;26.10;71.00
65582;DHT22;52231;40.090;18.348;2023-06-10T15:13:21;26.30;70.60
65582;DHT22;52231;40.090;18.348;2023-06-10T15:15:50;26.40;69.50
65582;DHT22;52231;40.090;18.348;2023-06-10T15:18:19;26.60;69.50
65582;DHT22;52231;40.090;18.348;2023-06-10T15:20:48;26.70;68.00
65582;DHT22;52231;40.090;18.348;2023-06-10T15:23:17;26.80;68.70
65582;DHT22;52231;40.090;18.348;2023-06-10T15:25:46;26.90;68.50
65582;DHT22;52231;40.090;18.348;2023-06-10T15:28:17;26.80;68.20
65582;DHT22;52231;40.090;18.348;2023-06-10T15:30:46;26.70;68.00
65582;DHT22;52231;40.090;18.348;2023-06-10T15:33:14;26.50;68.90
65582;DHT22;52231;40.090;18.348;2023-06-10T15:35:43;26.50;69.40
65582;DHT22;52231;40.090;18.348;2023-06-10T15:38:12;26.40;69.40
65582;DHT22;52231;40.090;18.348;2023-06-10T15:40:43;26.40;69.40
65582;DHT22;52231;40.090;18.348;2023-06-10T15:43:12;26.50;69.90
65582;DHT22;52231;40.090;18.348;2023-06-10T15:45:41;26.50;68.90
65582;DHT22;52231;40.090;18.348;2023-06-10T15:48:09;26.60;69.60
65582;DHT22;52231;40.090;18.348;2023-06-10T15:50:38;26.80;69.00
65582;DHT22;52231;40.090;18.348;2023-06-10T15:53:06;26.90;68.60
65582;DHT22;52231;40.090;18.348;2023-06-10T15:55:34;26.90;68.30
65582;DHT22;52231;40.090;18.348;2023-06-10T15:58:03;27.00;67.90
65582;DHT22;52231;40.090;18.348;2023-06-10T16:00:32;26.90;67.40
65582;DHT22;52231;40.090;18.348;2023-06-10T16:03:00;26.80;67.40
65582;DHT22;52231;40.090;18.348;2023-06-10T16:05:28;26.80;67.40
65582;DHT22;52231;40.090;18.348;2023-06-10T16:07:56;26.70;67.20
65582;DHT22;52231;40.090;18.348;2023-06-10T16:10:27;26.50;67.40
65582;DHT22;52231;40.090;18.348;2023-06-10T16:12:56;26.40;68.00
65582;DHT22;52231;40.090;18.348;2023-06-10T16:15:24;26.30;67.60
65582;DHT22;52231;40.090;18.348;2023-06-10T16:17:52;26.10;66.80
65582;DHT22;52231;40.090;18.348;2023-06-10T16:20:22;25.90;66.90
65582;DHT22;52231;40.090;18.348;2023-06-10T16:22:50;25.70;67.20
65582;DHT22;52231;40.090;18.348;2023-06-10T16:25:19;25.60;67.80
65582;DHT22;52231;40.090;18.348;2023-06-10T16:27:47;25.30;68.40
65582;DHT22;52231;40.090;18.348;2023-06-10T16:30:16;25.30;69.30
65582;DHT22;52231;40.090;18.348;2023-06-10T16:32:44;25.10;70.60
65582;DHT22;52231;40.090;18.348;2023-06-10T16:35:13;24.90;71.20
65582;DHT22;52231;40.090;18.348;2023-06-10T16:37:41;24.70;71.80
65582;DHT22;52231;40.090;18.348;2023-06-10T16:40:13;24.50;71.80
65582;DHT22;52231;40.090;18.348;2023-06-10T16:42:44;24.30;72.00
65582;DHT22;52231;40.090;18.348;2023-06-10T16:45:13;24.30;72.30
65582;DHT22;52231;40.090;18.348;2023-06-10T16:47:41;24.20;72.30
65582;DHT22;52231;40.090;18.348;2023-06-10T16:50:10;24.20;72.50
65582;DHT22;52231;40.090;18.348;2023-06-10T16:52:39;24.20;71.80
65582;DHT22;52231;40.090;18.348;2023-06-10T16:55:08;24.10;72.00
65582;DHT22;52231;40.090;18.348;2023-06-10T16:57:37;24.10;72.30
65582;DHT22;52231;40.090;18.348;2023-06-10T17:00:06;24.10;72.20
65582;DHT22;52231;40.090;18.348;2023-06-10T17:02:34;24.10;72.20
65582;DHT22;52231;40.090;18.348;2023-06-10T17:05:03;24.10;72.50
65582;DHT22;52231;40.090;18.348;2023-06-10T17:07:32;24.00;72.70
65582;DHT22;52231;40.090;18.348;2023-06-10T17:10:02;24.00;73.10
65582;DHT22;52231;40.090;18.348;2023-06-10T17:12:32;23.90;73.50
65582;DHT22;52231;40.090;18.348;2023-06-10T17:15:00;23.80;73.80
65582;DHT22;52231;40.090;18.348;2023-06-10T17:17:29;23.80;74.00
65582;DHT22;52231;40.090;18.348;2023-06-10T17:19:57;23.70;74.60
65582;DHT22;52231;40.090;18.348;2023-06-10T17:22:26;23.60;75.00
65582;DHT22;52231;40.090;18.348;2023-06-10T17:24:54;23.50;75.50
65582;DHT22;52231;40.090;18.348;2023-06-10T17:27:23;23.50;76.00
65582;DHT22;52231;40.090;18.348;2023-06-10T17:29:52;23.50;76.10
65582;DHT22;52231;40.090;18.348;2023-06-10T17:32:21;23.50;76.30
65582;DHT22;52231;40.090;18.348;2023-06-10T17:34:49;23.40;76.40
65582;DHT22;52231;40.090;18.348;2023-06-10T17:37:18;23.30;76.60
65582;DHT22;52231;40.090;18.348;2023-06-10T17:39:47;23.30;76.70
65582;DHT22;52231;40.090;18.348;2023-06-10T17:42:15;23.20;77.00
65582;DHT22;52231;40.090;18.348;2023-06-10T17:44:44;23.10;77.20
65582;DHT22;52231;40.090;18.348;2023-06-10T17:47:13;23.00;77.50
65582;DHT22;52231;40.090;18.348;2023-06-10T17:49:41;23.00;77.80
65582;DHT22;52231;40.090;18.348;2023-06-10T17:52:13;22.90;78.30
65582;DHT22;52231;40.090;18.348;2023-06-10T17:54:45;22.80;78.70
65582;DHT22;52231;40.090;18.348;2023-06-10T17:57:14;22.70;78.80
65582;DHT22;52231;40.090;18.348;2023-06-10T17:59:43;22.60;79.10
65582;DHT22;52231;40.090;18.348;2023-06-10T18:02:15;22.60;79.50
65582;DHT22;52231;40.090;18.348;2023-06-10T18:04:48;22.50;79.90
65582;DHT22;52231;40.090;18.348;2023-06-10T18:07:17;22.40;80.50
65582;DHT22;52231;40.090;18.348;2023-06-10T18:09:47;22.30;80.70
65582;DHT22;52231;40.090;18.348;2023-06-10T18:12:16;22.30;81.00
65582;DHT22;52231;40.090;18.348;2023-06-10T18:14:45;22.30;81.30
65582;DHT22;52231;40.090;18.348;2023-06-10T18:17:13;22.20;81.70
65582;DHT22;52231;40.090;18.348;2023-06-10T18:19:41;22.10;81.80
65582;DHT22;52231;40.090;18.348;2023-06-10T18:22:10;22.00;82.00
65582;DHT22;52231;40.090;18.348;2023-06-10T18:24:38;22.00;82.00
65582;DHT22;52231;40.090;18.348;2023-06-10T18:27:08;21.90;82.30
65582;DHT22;52231;40.090;18.348;2023-06-10T18:29:37;21.90;82.30
65582;DHT22;52231;40.090;18.348;2023-06-10T18:32:06;21.80;82.60
65582;DHT22;52231;40.090;18.348;2023-06-10T18:34:35;21.80;82.80
65582;DHT22;52231;40.090;18.348;2023-06-10T18:37:06;21.70;82.90
65582;DHT22;52231;40.090;18.348;2023-06-10T18:39:35;21.60;83.00
65582;DHT22;52231;40.090;18.348;2023-06-10T18:42:04;21.60;83.20
65582;DHT22;52231;40.090;18.348;2023-06-10T18:44:40;21.60;83.30
65582;DHT22;52231;40.090;18.348;2023-06-10T18:47:18;21.50;83.40
65582;DHT22;52231;40.090;18.348;2023-06-10T18:49:50;21.40;83.60
65582;DHT22;52231;40.090;18.348;2023-06-10T18:52:19;21.40;83.80
65582;DHT22;52231;40.090;18.348;2023-06-10T18:54:48;21.30;83.90
65582;DHT22;52231;40.090;18.348;2023-06-10T18:57:18;21.30;84.10
65582;DHT22;52231;40.090;18.348;2023-06-10T18:59:47;21.30;84.20
65582;DHT22;52231;40.090;18.348;2023-06-10T19:02:16;21.30;84.40
65582;DHT22;52231;40.090;18.348;2023-06-10T19:04:45;21.20;84.50
65582;DHT22;52231;40.090;18.348;2023-06-10T19:07:15;21.20;84.50
65582;DHT22;52231;40.090;18.348;2023-06-10T19:09:45;21.20;84.60
65582;DHT22;52231;40.090;18.348;2023-06-10T19:12:13;21.20;84.70
65582;DHT22;52231;40.090;18.348;2023-06-10T19:14:43;21.20;84.70
65582;DHT22;52231;40.090;18.348;2023-06-10T19:17:11;21.20;84.70
65582;DHT22;52231;40.090;18.348;2023-06-10T19:19:43;21.20;84.70
65582;DHT22;52231;40.090;18.348;2023-06-10T19:22:11;21.10;84.70
65582;DHT22;52231;40.090;18.348;2023-06-10T19:24:40;21.10;84.80
65582;DHT22;52231;40.090;18.348;2023-06-10T19:27:11;21.00;84.80
65582;DHT22;52231;40.090;18.348;2023-06-10T19:29:40;21.00;84.90
65582;DHT22;52231;40.090;18.348;2023-06-10T19:32:09;21.00;85.00
65582;DHT22;52231;40.090;18.348;2023-06-10T19:34:37;21.00;85.10
65582;DHT22;52231;40.090;18.348;2023-06-10T19:37:06;21.00;85.10